createdAt,value
2018-08-28T00:02:04.108Z,97639.16
2018-08-28T00:04:31.912Z,97637.59
2018-08-28T00:06:59.699Z,97641.65
2018-08-28T00:09:27.434Z,97635.33
2018-08-28T00:11:55.200Z,97632.96
2018-08-28T00:14:22.933Z,97643.77
2018-08-28T00:16:50.588Z,97649.17
2018-08-28T00:19:18.271Z,97650.98
2018-08-28T00:21:46.051Z,97646.47
2018-08-28T00:24:13.804Z,97647.82
2018-08-28T00:26:41.469Z,97651.66
2018-08-28T00:29:09.192Z,97652.09
2018-08-28T00:31:36.966Z,97652.45
2018-08-28T00:34:04.712Z,97660.78
2018-08-28T00:36:32.408Z,97663.48
2018-08-28T00:39:00.121Z,97659.98
2018-08-28T00:41:27.854Z,97666.52
2018-08-28T00:43:55.645Z,97666.52
2018-08-28T00:46:23.376Z,97667.31
2018-08-28T00:48:51.141Z,97669.77
2018-08-28T00:51:18.865Z,97672.14
2018-08-28T00:53:46.601Z,97673.48
2018-08-28T00:56:14.248Z,97672.47
2018-08-28T00:58:41.990Z,97673.27
2018-08-28T01:01:09.683Z,97678.13
2018-08-28T01:03:37.420Z,97569.06
2018-08-28T01:06:05.283Z,97684.87
2018-08-28T01:08:32.972Z,97685.42
2018-08-28T01:11:00.690Z,97688.93
2018-08-28T01:13:28.444Z,97689.81
2018-08-28T01:15:56.249Z,97687.11
2018-08-28T01:18:24.087Z,97688.45
2018-08-28T01:20:51.777Z,97684.41
2018-08-28T01:23:19.489Z,97686.31
2018-08-28T01:25:47.245Z,97683.05
2018-08-28T01:28:14.912Z,97686.31
2018-08-28T01:30:42.699Z,97684.19
2018-08-28T01:33:10.412Z,97682.59
2018-08-28T01:35:38.075Z,97679.12
2018-08-28T01:38:05.735Z,97685.88
2018-08-28T01:40:33.401Z,97684.73
2018-08-28T01:43:01.646Z,97690.14
2018-08-28T01:45:29.690Z,97686.09
2018-08-28T01:47:57.385Z,97689.13
2018-08-28T01:50:25.124Z,97681.82
2018-08-28T01:52:52.876Z,97681.02
2018-08-28T01:55:20.597Z,97673.94
2018-08-28T01:57:48.305Z,97673.38
2018-08-28T02:00:16.017Z,97673.94
2018-08-28T02:02:43.754Z,97678.20
2018-08-28T02:05:11.699Z,97669.33
2018-08-28T02:07:39.459Z,97674.95
2018-08-28T02:10:07.260Z,97678.31
2018-08-28T02:12:34.950Z,97683.72
2018-08-28T02:15:02.668Z,97691.02
2018-08-28T02:17:30.514Z,97682.92
2018-08-28T02:19:58.398Z,97681.34
2018-08-28T02:22:26.330Z,97685.40
2018-08-28T02:24:54.061Z,97692.63
2018-08-28T02:27:21.851Z,97689.92
2018-08-28T02:29:49.575Z,97685.29
2018-08-28T02:32:17.362Z,97678.87
2018-08-28T02:34:45.149Z,97675.39
2018-08-28T02:37:12.949Z,97682.70
2018-08-28T02:39:40.724Z,97676.50
2018-08-28T02:42:08.424Z,97676.75
2018-08-28T02:44:36.219Z,97678.43
2018-08-28T02:47:04.061Z,97673.03
2018-08-28T02:49:31.717Z,97678.09
2018-08-28T02:51:59.488Z,97679.78
2018-08-28T02:54:27.249Z,97681.46
2018-08-28T02:56:54.989Z,97682.23
2018-08-28T02:59:22.717Z,97681.67
2018-08-28T03:01:50.494Z,97681.67
2018-08-28T03:04:18.216Z,97677.41
2018-08-28T03:06:45.905Z,97684.71
2018-08-28T03:09:13.617Z,97690.91
2018-08-28T03:11:41.364Z,97688.98
2018-08-28T03:14:09.001Z,97696.20
2018-08-28T03:16:36.831Z,97698.91
2018-08-28T03:19:04.535Z,97697.01
2018-08-28T03:21:32.794Z,97694.86
2018-08-28T03:24:00.549Z,97695.66
2018-08-28T03:26:28.209Z,97698.11
2018-08-28T03:28:56.008Z,97695.98
2018-08-28T03:31:23.717Z,97704.64
2018-08-28T03:33:51.365Z,97704.09
2018-08-28T03:36:19.349Z,97678.31
2018-08-28T03:38:47.160Z,97699.02
2018-08-28T03:41:14.969Z,97699.02
2018-08-28T03:43:42.861Z,97697.67
2018-08-28T03:46:10.591Z,97691.69
2018-08-28T03:48:38.367Z,97691.69
2018-08-28T03:51:06.539Z,97690.91
2018-08-28T03:53:34.469Z,97695.30
2018-08-28T03:56:02.258Z,97704.64
2018-08-28T03:58:30.059Z,97701.72
2018-08-28T04:00:57.730Z,97707.67
2018-08-28T04:03:25.499Z,97707.45
2018-08-28T04:05:53.189Z,97707.13
2018-08-28T04:08:20.885Z,97707.89
2018-08-28T04:10:48.757Z,97707.13
2018-08-28T04:13:16.449Z,97714.42
2018-08-28T04:15:44.313Z,97713.87
2018-08-28T04:18:12.019Z,97710.84
2018-08-28T04:20:39.734Z,97718.15
2018-08-28T04:23:07.444Z,97719.50
2018-08-28T04:25:35.176Z,97718.15
2018-08-28T04:28:02.915Z,97724.69
2018-08-28T04:30:30.575Z,97726.80
2018-08-28T04:32:58.217Z,97729.17
2018-08-28T04:35:25.841Z,97727.83
2018-08-28T04:37:53.460Z,97727.60
2018-08-28T04:40:21.094Z,97728.41
2018-08-28T04:42:48.724Z,97735.71
2018-08-28T04:45:16.405Z,97736.59
2018-08-28T04:47:44.030Z,97732.28
2018-08-28T04:50:11.690Z,97732.28
2018-08-28T04:52:39.322Z,97738.23
2018-08-28T04:55:06.948Z,97740.94
2018-08-28T04:57:34.729Z,97744.55
2018-08-28T05:00:02.370Z,97749.62
2018-08-28T05:02:37.313Z,97746.45
2018-08-28T05:05:06.798Z,97754.00
2018-08-28T05:07:34.534Z,97751.74
2018-08-28T05:10:02.308Z,97758.78
2018-08-28T05:12:29.941Z,97758.50
2018-08-28T05:14:57.861Z,97759.84
2018-08-28T05:17:25.480Z,97758.06
2018-08-28T05:19:53.259Z,97760.76
2018-08-28T05:22:20.956Z,97756.70
2018-08-28T05:24:48.660Z,97763.46
2018-08-28T05:27:16.396Z,97767.52
2018-08-28T05:29:44.161Z,97769.88
2018-08-28T05:32:11.819Z,97765.14
2018-08-28T05:34:39.545Z,97768.61
2018-08-28T05:37:07.346Z,97767.59
2018-08-28T05:39:35.850Z,97773.31
2018-08-28T05:42:03.638Z,97769.73
2018-08-28T05:44:31.313Z,97767.03
2018-08-28T05:46:59.090Z,97767.59
2018-08-28T05:49:26.890Z,97764.12
2018-08-28T05:51:54.495Z,97769.27
2018-08-28T05:54:22.181Z,97768.94
2018-08-28T05:56:49.835Z,97769.52
2018-08-28T05:59:17.520Z,97766.23
2018-08-28T06:01:45.242Z,97763.53
2018-08-28T06:04:12.979Z,97771.89
2018-08-28T06:06:40.713Z,97772.44
2018-08-28T06:09:08.582Z,97770.54
2018-08-28T06:11:36.258Z,97769.19
2018-08-28T06:14:03.990Z,97770.77
2018-08-28T06:16:31.770Z,97770.98
2018-08-28T06:18:59.545Z,97772.18
2018-08-28T06:21:27.264Z,97779.41
2018-08-28T06:23:54.897Z,97770.53
2018-08-28T06:26:22.581Z,97774.70
2018-08-28T06:28:50.350Z,97776.19
2018-08-28T06:31:18.009Z,97775.31
2018-08-28T06:33:45.705Z,97780.05
2018-08-28T06:36:13.579Z,97780.50
2018-08-28T06:38:41.234Z,97780.75
2018-08-28T06:41:08.933Z,97784.69
2018-08-28T06:43:36.890Z,97785.23
2018-08-28T06:46:04.559Z,97788.41
2018-08-28T06:48:32.324Z,97782.76
2018-08-28T06:51:00.028Z,97782.87
2018-08-28T06:53:27.758Z,97782.16
2018-08-28T06:55:55.433Z,97777.98
2018-08-28T06:58:23.179Z,97785.08
2018-08-28T07:00:50.949Z,97790.37
2018-08-28T07:03:18.739Z,97790.05
2018-08-28T07:05:46.433Z,97794.06
2018-08-28T07:08:14.165Z,97798.20
2018-08-28T07:10:41.899Z,97798.64
2018-08-28T07:13:09.701Z,97797.62
2018-08-28T07:15:37.473Z,97800.66
2018-08-28T07:18:05.124Z,97795.58
2018-08-28T07:20:33.109Z,97803.91
2018-08-28T07:23:00.929Z,97800.41
2018-08-28T07:25:28.764Z,97794.45
2018-08-28T07:27:56.626Z,97796.59
2018-08-28T07:30:24.348Z,97793.31
2018-08-28T07:32:52.033Z,97792.55
2018-08-28T07:35:19.753Z,97790.39
2018-08-28T07:37:47.530Z,97791.96
2018-08-28T07:40:15.321Z,97792.22
2018-08-28T07:42:43.152Z,97797.30
2018-08-28T07:45:10.837Z,97795.03
2018-08-28T07:47:38.604Z,97799.45
2018-08-28T07:50:06.392Z,97801.77
2018-08-28T07:52:34.181Z,97804.25
2018-08-28T07:55:01.898Z,97799.23
2018-08-28T07:57:29.613Z,97799.45
2018-08-28T07:59:57.348Z,97801.30
2018-08-28T08:02:25.347Z,97802.62
2018-08-28T08:04:53.071Z,97798.76
2018-08-28T08:07:21.140Z,97795.28
2018-08-28T08:09:48.889Z,97800.27
2018-08-28T08:12:16.590Z,97793.73
2018-08-28T08:14:44.249Z,97797.41
2018-08-28T08:17:11.982Z,97799.99
2018-08-28T08:19:39.683Z,97799.08
2018-08-28T08:22:07.413Z,97798.74
2018-08-28T08:24:35.138Z,97803.05
2018-08-28T08:27:03.039Z,97798.70
2018-08-28T08:29:30.801Z,97807.42
2018-08-28T08:31:58.657Z,97803.34
2018-08-28T08:34:26.362Z,97799.14
2018-08-28T08:36:54.135Z,97791.37
2018-08-28T08:39:21.949Z,97794.32
2018-08-28T08:41:50.596Z,97791.95
2018-08-28T08:44:18.456Z,97791.84
2018-08-28T08:46:46.372Z,97798.59
2018-08-28T08:49:14.221Z,97795.89
2018-08-28T08:51:42.485Z,97792.97
2018-08-28T08:54:10.350Z,97792.86
2018-08-28T08:56:39.124Z,97788.25
2018-08-28T08:59:06.985Z,97790.37
2018-08-28T09:01:34.818Z,97790.63
2018-08-28T09:04:03.060Z,97788.14
2018-08-28T09:06:30.811Z,97781.16
2018-08-28T09:08:59.078Z,97782.08
2018-08-28T09:11:26.905Z,97780.47
2018-08-28T09:13:54.770Z,97783.97
2018-08-28T09:16:22.742Z,97785.88
2018-08-28T09:18:50.616Z,97782.84
2018-08-28T09:21:18.379Z,97776.41
2018-08-28T09:23:46.318Z,97776.33
2018-08-28T09:26:14.138Z,97775.20
2018-08-28T09:28:41.994Z,97772.50
2018-08-28T09:31:09.877Z,97774.66
2018-08-28T09:33:37.663Z,97771.61
2018-08-28T09:36:05.613Z,97768.91
2018-08-28T09:38:33.534Z,97769.93
2018-08-28T09:41:01.245Z,97775.56
2018-08-28T09:43:29.449Z,97769.02
2018-08-28T09:45:57.212Z,97769.81
2018-08-28T09:48:25.003Z,97771.17
2018-08-28T09:50:52.695Z,97769.81
2018-08-28T09:53:20.472Z,97762.73
2018-08-28T09:55:48.261Z,97762.51
2018-08-28T09:58:16.018Z,97764.74
2018-08-28T10:00:49.060Z,97760.14
2018-08-28T10:03:16.893Z,97762.73
2018-08-28T10:05:44.676Z,97762.17
2018-08-28T10:08:12.471Z,97753.73
2018-08-28T10:10:40.282Z,97749.89
2018-08-28T10:13:07.930Z,97752.05
2018-08-28T10:15:35.562Z,97743.02
2018-08-28T10:18:03.206Z,97750.24
2018-08-28T10:20:30.821Z,97745.64
2018-08-28T10:22:58.523Z,97741.80
2018-08-28T10:25:26.116Z,97739.89
2018-08-28T10:27:53.790Z,97736.61
2018-08-28T10:30:21.458Z,97738.88
2018-08-28T10:32:49.128Z,97746.98
2018-08-28T10:35:16.823Z,97741.25
2018-08-28T10:37:44.626Z,97735.70
2018-08-28T10:40:12.273Z,97734.23
2018-08-28T10:42:39.897Z,97727.95
2018-08-28T10:45:07.566Z,97732.00
2018-08-28T10:47:35.193Z,97731.45
2018-08-28T10:50:02.818Z,97734.41
2018-08-28T10:52:30.487Z,97733.85
2018-08-28T10:54:58.137Z,97730.81
2018-08-28T10:57:25.761Z,97730.48
2018-08-28T10:59:53.393Z,97734.17
2018-08-28T11:02:21.086Z,97726.05
2018-08-28T11:04:48.717Z,97723.02
2018-08-28T11:07:16.574Z,97724.95
2018-08-28T11:09:44.236Z,97724.61
2018-08-28T11:12:11.857Z,97718.41
2018-08-28T11:14:39.527Z,97720.56
2018-08-28T11:17:07.212Z,97717.27
2018-08-28T11:19:34.837Z,97710.64
2018-08-28T11:22:02.479Z,97714.70
2018-08-28T11:24:30.102Z,97708.83
2018-08-28T11:26:57.756Z,97706.70
2018-08-28T11:29:25.416Z,97713.68
2018-08-28T11:31:53.036Z,97713.56
2018-08-28T11:34:21.059Z,97707.59
2018-08-28T11:36:48.686Z,97706.80
2018-08-28T11:39:16.324Z,97705.11
2018-08-28T11:41:43.989Z,97701.52
2018-08-28T11:44:11.663Z,97704.44
2018-08-28T11:46:39.297Z,97703.89
2018-08-28T11:49:06.942Z,97702.53
2018-08-28T11:51:34.622Z,97706.81
2018-08-28T11:54:02.459Z,97697.34
2018-08-28T11:56:30.110Z,97695.90
2018-08-28T11:58:57.738Z,97691.05
2018-08-28T12:01:26.243Z,97692.61
2018-08-28T12:03:53.864Z,97691.72
2018-08-28T12:06:21.502Z,97687.11
2018-08-28T12:08:49.199Z,97682.25
2018-08-28T12:11:16.849Z,97679.21
2018-08-28T12:13:44.487Z,97680.23
2018-08-28T12:16:12.113Z,97677.30
2018-08-28T12:18:39.742Z,97677.73
2018-08-28T12:21:07.382Z,97678.32
2018-08-28T12:23:35.017Z,97677.52
2018-08-28T12:26:02.672Z,97676.05
2018-08-28T12:28:30.338Z,97672.79
2018-08-28T12:30:57.976Z,97651.70
2018-08-28T12:33:25.654Z,97652.95
2018-08-28T12:35:53.290Z,97650.69
2018-08-28T12:38:20.982Z,97654.52
2018-08-28T12:40:48.605Z,97653.17
2018-08-28T12:43:16.296Z,97646.41
2018-08-28T12:45:43.941Z,97645.52
2018-08-28T12:48:11.583Z,97642.81
2018-08-28T12:50:39.278Z,97491.45
2018-08-28T12:53:06.950Z,97637.95
2018-08-28T12:55:34.598Z,97631.62
2018-08-28T12:58:02.242Z,97635.12
2018-08-28T13:00:29.898Z,97630.52
2018-08-28T13:02:57.543Z,97628.82
2018-08-28T13:05:25.182Z,97623.63
2018-08-28T13:07:52.850Z,97622.48
2018-08-28T13:10:20.496Z,97623.84
2018-08-28T13:12:48.153Z,97635.12
2018-08-28T13:15:15.834Z,97622.73
2018-08-28T13:17:43.781Z,97617.53
2018-08-28T13:20:11.411Z,97623.41
2018-08-28T13:22:39.032Z,97623.41
2018-08-28T13:25:08.191Z,97617.41
2018-08-28T13:27:35.975Z,97612.80
2018-08-28T13:30:03.870Z,97614.14
2018-08-28T13:32:31.531Z,97614.36
2018-08-28T13:34:59.299Z,97609.96
2018-08-28T13:37:27.001Z,97611.10
2018-08-28T13:39:54.654Z,97610.42
2018-08-28T13:42:22.279Z,97608.27
2018-08-28T13:44:49.910Z,97610.76
2018-08-28T13:47:17.647Z,97604.80
2018-08-28T13:49:45.266Z,97608.52
2018-08-28T13:52:13.092Z,97606.36
2018-08-28T13:54:40.716Z,97609.63
2018-08-28T13:57:08.358Z,97608.52
2018-08-28T13:59:36.126Z,97606.81
2018-08-28T14:02:03.874Z,97604.66
2018-08-28T14:04:31.606Z,97600.82
2018-08-28T14:06:59.249Z,97600.82
2018-08-28T14:09:26.878Z,97603.31
2018-08-28T14:11:54.654Z,97596.20
2018-08-28T14:14:22.297Z,97604.20
2018-08-28T14:16:50.005Z,97599.92
2018-08-28T14:19:17.637Z,97592.60
2018-08-28T14:21:45.383Z,97593.37
2018-08-28T14:24:13.083Z,97589.90
2018-08-28T14:26:40.959Z,97593.71
2018-08-28T14:29:08.832Z,97586.39
2018-08-28T14:31:36.497Z,97587.19
2018-08-28T14:34:04.273Z,97590.33
2018-08-28T14:36:32.025Z,97586.05
2018-08-28T14:38:59.809Z,97584.36
2018-08-28T14:41:27.559Z,97587.06
2018-08-28T14:43:55.360Z,97584.91
2018-08-28T14:46:23.137Z,97584.91
2018-08-28T14:48:50.985Z,97583.46
2018-08-28T14:51:18.758Z,97576.70
2018-08-28T14:53:46.412Z,97580.75
2018-08-28T14:56:14.093Z,97580.16
2018-08-28T14:58:41.735Z,97429.77
2018-08-28T15:01:09.373Z,97572.84
2018-08-28T15:03:37.104Z,97577.12
2018-08-28T15:06:04.773Z,97577.70
2018-08-28T15:08:32.435Z,97570.81
2018-08-28T15:11:00.081Z,97566.19
2018-08-28T15:13:27.816Z,97566.30
2018-08-28T15:15:55.463Z,97563.83
2018-08-28T15:18:23.419Z,97566.75
2018-08-28T15:20:51.339Z,97562.34
2018-08-28T15:23:18.977Z,97561.55
2018-08-28T15:25:46.624Z,97563.39
2018-08-28T15:28:14.289Z,97558.28
2018-08-28T15:30:41.958Z,97555.58
2018-08-28T15:33:09.603Z,97552.31
2018-08-28T15:35:37.381Z,97549.61
2018-08-28T15:38:05.146Z,97549.85
2018-08-28T15:40:32.796Z,97548.48
2018-08-28T15:43:00.444Z,97548.83
2018-08-28T15:45:28.190Z,97542.27
2018-08-28T15:47:55.840Z,97543.97
2018-08-28T15:50:23.521Z,97542.06
2018-08-28T15:52:51.154Z,97545.32
2018-08-28T15:55:18.769Z,97544.21
2018-08-28T15:57:46.396Z,97539.56
2018-08-28T16:00:14.025Z,97545.32
2018-08-28T16:02:41.644Z,97544.21
2018-08-28T16:05:09.283Z,97540.70
2018-08-28T16:07:36.976Z,97541.51
2018-08-28T16:10:04.613Z,97538.21
2018-08-28T16:12:32.242Z,97542.27
2018-08-28T16:14:59.894Z,97542.06
2018-08-28T16:17:27.509Z,97547.69
2018-08-28T16:19:55.177Z,97543.20
2018-08-28T16:22:27.121Z,97544.77
2018-08-28T16:24:54.746Z,97543.41
2018-08-28T16:27:22.374Z,97540.16
2018-08-28T16:29:50.079Z,97542.27
2018-08-28T16:32:17.659Z,97534.16
2018-08-28T16:34:45.278Z,97540.70
2018-08-28T16:37:13.008Z,97534.50
2018-08-28T16:39:40.594Z,97533.38
2018-08-28T16:42:08.246Z,97534.95
2018-08-28T16:44:35.891Z,97530.67
2018-08-28T16:47:03.535Z,97530.67
2018-08-28T16:49:31.174Z,97531.23
2018-08-28T16:51:58.919Z,97528.52
2018-08-28T16:54:26.555Z,97532.59
2018-08-28T16:56:54.194Z,97529.08
2018-08-28T16:59:21.837Z,97531.02
2018-08-28T17:01:49.486Z,97528.31
2018-08-28T17:04:17.136Z,97527.06
2018-08-28T17:06:44.774Z,97523.24
2018-08-28T17:09:12.392Z,97529.55
2018-08-28T17:11:40.026Z,97525.95
2018-08-28T17:14:07.653Z,97530.01
2018-08-28T17:16:35.366Z,97527.06
2018-08-28T17:19:03.261Z,97531.13
2018-08-28T17:21:30.904Z,97524.02
2018-08-28T17:23:58.558Z,97527.06
2018-08-28T17:26:26.232Z,97525.49
2018-08-28T17:28:53.890Z,97519.28
2018-08-28T17:31:21.530Z,97524.70
2018-08-28T17:33:49.149Z,97520.55
2018-08-28T17:36:16.790Z,97521.91
2018-08-28T17:38:44.404Z,97519.55
2018-08-28T17:41:12.049Z,97522.46
2018-08-28T17:43:39.678Z,97519.20
2018-08-28T17:46:07.345Z,97523.26
2018-08-28T17:48:34.990Z,97523.81
2018-08-28T17:51:02.613Z,97524.37
2018-08-28T17:53:30.227Z,97528.89
2018-08-28T17:55:58.011Z,97524.37
2018-08-28T17:58:25.680Z,97531.14
2018-08-28T18:00:53.334Z,97529.02
2018-08-28T18:03:20.980Z,97528.77
2018-08-28T18:05:48.632Z,97534.09
2018-08-28T18:08:16.279Z,97528.22
2018-08-28T18:10:43.946Z,97533.08
2018-08-28T18:13:11.615Z,97536.34
2018-08-28T18:15:39.402Z,97539.59
2018-08-28T18:18:07.058Z,97545.01
2018-08-28T18:20:34.810Z,97538.25
2018-08-28T18:23:02.573Z,97546.15
2018-08-28T18:25:30.250Z,97546.95
2018-08-28T18:27:58.015Z,97552.91
2018-08-28T18:30:25.669Z,97553.26
2018-08-28T18:32:53.366Z,97556.30
2018-08-28T18:35:21.054Z,97556.52
2018-08-28T18:37:48.749Z,97555.75
2018-08-28T18:40:16.426Z,97556.52
2018-08-28T18:42:44.125Z,97562.73
2018-08-28T18:45:11.840Z,97563.88
2018-08-28T18:47:39.493Z,97569.28
2018-08-28T18:50:07.179Z,97561.72
2018-08-28T18:52:34.863Z,97561.72
2018-08-28T18:55:02.656Z,97567.69
2018-08-28T18:57:30.373Z,97561.84
2018-08-28T18:59:58.089Z,97568.70
2018-08-28T19:02:25.799Z,97563.61
2018-08-28T19:04:53.491Z,97567.10
2018-08-28T19:07:21.237Z,97565.28
2018-08-28T19:09:49.013Z,97574.21
2018-08-28T19:12:16.810Z,97573.20
2018-08-28T19:14:44.599Z,97572.73
2018-08-28T19:17:12.373Z,97574.87
2018-08-28T19:19:40.164Z,97572.16
2018-08-28T19:22:08.441Z,97575.08
2018-08-28T19:24:36.332Z,97568.45
2018-08-28T19:27:04.021Z,97569.13
2018-08-28T19:29:31.753Z,97564.14
2018-08-28T19:31:59.509Z,97562.55
2018-08-28T19:34:27.213Z,97560.19
2018-08-28T19:36:54.947Z,97563.56
2018-08-28T19:39:22.645Z,97570.52
2018-08-28T19:41:50.373Z,97570.00
2018-08-28T19:44:18.192Z,97565.96
2018-08-28T19:46:45.822Z,97574.41
2018-08-28T19:49:13.484Z,97569.47
2018-08-28T19:51:41.424Z,97569.02
2018-08-28T19:54:09.130Z,97565.88
2018-08-28T19:56:36.819Z,97567.79
2018-08-28T19:59:04.770Z,97561.36
2018-08-28T20:01:32.481Z,97559.21
2018-08-28T20:04:00.201Z,97559.55
2018-08-28T20:06:27.936Z,97559.00
2018-08-28T20:08:55.713Z,97555.84
2018-08-28T20:11:23.471Z,97556.08
2018-08-28T20:13:51.200Z,97556.63
2018-08-28T20:16:19.525Z,97561.25
2018-08-28T20:18:47.293Z,97560.69
2018-08-28T20:21:15.068Z,97551.77
2018-08-28T20:23:42.813Z,97560.23
2018-08-28T20:26:10.611Z,97555.16
2018-08-28T20:28:38.333Z,97552.36
2018-08-28T20:31:06.097Z,97560.23
2018-08-28T20:33:33.777Z,97557.11
2018-08-28T20:36:01.514Z,97552.80
2018-08-28T20:38:29.262Z,97554.49
2018-08-28T20:40:57.509Z,97557.20
2018-08-28T20:43:25.189Z,97550.22
2018-08-28T20:45:52.851Z,97549.66
2018-08-28T20:48:20.554Z,97546.72
2018-08-28T20:50:48.278Z,97541.30
2018-08-28T20:53:16.004Z,97542.66
2018-08-28T20:55:43.717Z,97549.00
2018-08-28T20:58:11.509Z,97540.08
2018-08-28T21:00:39.177Z,97544.27
2018-08-28T21:03:07.501Z,97538.64
2018-08-28T21:05:35.193Z,97537.05
2018-08-28T21:08:02.825Z,97536.28
2018-08-28T21:10:31.067Z,97538.19
2018-08-28T21:12:59.015Z,97539.33
2018-08-28T21:15:26.741Z,97536.03
2018-08-28T21:17:54.502Z,97542.03
2018-08-28T21:20:22.264Z,97536.95
2018-08-28T21:22:49.932Z,97538.31
2018-08-28T21:25:18.018Z,97534.25
2018-08-28T21:27:45.741Z,97531.55
2018-08-28T21:30:13.478Z,97530.53
2018-08-28T21:32:41.162Z,97527.83
2018-08-28T21:35:08.833Z,97525.47
2018-08-28T21:37:36.745Z,97523.31
2018-08-28T21:40:04.722Z,97528.94
2018-08-28T21:42:32.464Z,97518.46
2018-08-28T21:45:00.163Z,97517.11
2018-08-28T21:47:27.868Z,97511.48
2018-08-28T21:49:55.601Z,97513.39
2018-08-28T21:52:23.298Z,97511.83
2018-08-28T21:54:51.038Z,97509.92
2018-08-28T21:57:18.744Z,97509.13
2018-08-28T21:59:46.409Z,97509.13
2018-08-28T22:02:14.159Z,97506.97
2018-08-28T22:04:41.866Z,97517.02
2018-08-28T22:07:14.986Z,97510.26
2018-08-28T22:09:42.709Z,97507.55
2018-08-28T22:12:10.450Z,97501.90
2018-08-28T22:14:38.123Z,97497.08
2018-08-28T22:17:05.954Z,97496.83
2018-08-28T22:19:33.734Z,97489.52
2018-08-28T22:22:01.447Z,97481.19
2018-08-28T22:24:29.116Z,97484.44
2018-08-28T22:26:56.828Z,97476.88
2018-08-28T22:29:24.534Z,97482.30
2018-08-28T22:31:52.236Z,97476.88
2018-08-28T22:34:19.885Z,97469.91
2018-08-28T22:36:47.552Z,97472.61
2018-08-28T22:39:15.275Z,97472.61
2018-08-28T22:41:42.944Z,97468.34
2018-08-28T22:44:10.632Z,97471.05
2018-08-28T22:46:38.334Z,97464.05
2018-08-28T22:49:06.041Z,97462.69
2018-08-28T22:51:33.778Z,97466.53
2018-08-28T22:54:01.554Z,97465.39
2018-08-28T22:56:29.306Z,97465.19
2018-08-28T22:58:57.074Z,97460.33
2018-08-28T23:01:24.744Z,97464.39
2018-08-28T23:03:52.393Z,97463.61
2018-08-28T23:06:20.077Z,97459.56
2018-08-28T23:08:47.749Z,97456.61
2018-08-28T23:11:15.476Z,97454.15
2018-08-28T23:13:43.214Z,97459.91
2018-08-28T23:16:10.942Z,97459.10
2018-08-28T23:18:38.718Z,97449.42
2018-08-28T23:21:06.465Z,97455.84
2018-08-28T23:23:34.151Z,97457.20
2018-08-28T23:26:01.833Z,97461.25
2018-08-28T23:28:29.601Z,97456.40
2018-08-28T23:30:57.336Z,97454.83
2018-08-28T23:33:25.050Z,97456.19
2018-08-28T23:35:52.725Z,97456.19
2018-08-28T23:38:20.437Z,97451.33
2018-08-28T23:40:48.168Z,97445.92
2018-08-28T23:43:15.889Z,97450.32
2018-08-28T23:45:43.636Z,97447.06
2018-08-28T23:48:11.329Z,97445.13
2018-08-28T23:50:39.066Z,97446.82
2018-08-28T23:53:06.853Z,97440.30
2018-08-28T23:55:34.554Z,97440.86
2018-08-28T23:58:02.346Z,97440.64
